sensor_id;sensor_type;location;lat;lon;timestamp;P1;durP1;ratioP1;P2;durP2;ratioP2
20731;SDS011;10527;52.124;5.196;2022-11-23T00:01:46;10.53;;;7.80;;
20731;SDS011;10527;52.124;5.196;2022-11-23T00:04:13;13.53;;;8.23;;
20731;SDS011;10527;52.124;5.196;2022-11-23T00:06:40;13.93;;;8.97;;
20731;SDS011;10527;52.124;5.196;2022-11-23T00:09:08;12.20;;;7.90;;
20731;SDS011;10527;52.124;5.196;2022-11-23T00:11:54;11.47;;;7.77;;
20731;SDS011;10527;52.124;5.196;2022-11-23T00:14:21;11.97;;;8.47;;
20731;SDS011;10527;52.124;5.196;2022-11-23T00:16:47;11.73;;;7.63;;
20731;SDS011;10527;52.124;5.196;2022-11-23T00:19:14;12.57;;;8.10;;
20731;SDS011;10527;52.124;5.196;2022-11-23T00:21:41;13.70;;;8.83;;
20731;SDS011;10527;52.124;5.196;2022-11-23T00:24:10;12.57;;;9.20;;
20731;SDS011;10527;52.124;5.196;2022-11-23T00:26:55;13.63;;;10.07;;
20731;SDS011;10527;52.124;5.196;2022-11-23T00:29:25;18.23;;;10.33;;
20731;SDS011;10527;52.124;5.196;2022-11-23T00:31:52;14.30;;;10.73;;
20731;SDS011;10527;52.124;5.196;2022-11-23T00:34:19;14.47;;;11.10;;
20731;SDS011;10527;52.124;5.196;2022-11-23T00:36:46;21.57;;;11.80;;
20731;SDS011;10527;52.124;5.196;2022-11-23T00:39:12;15.10;;;10.53;;
20731;SDS011;10527;52.124;5.196;2022-11-23T00:41:39;15.87;;;10.17;;
20731;SDS011;10527;52.124;5.196;2022-11-23T00:44:06;16.10;;;10.37;;
20731;SDS011;10527;52.124;5.196;2022-11-23T00:46:33;13.87;;;9.93;;
20731;SDS011;10527;52.124;5.196;2022-11-23T00:49:00;13.80;;;10.17;;
20731;SDS011;10527;52.124;5.196;2022-11-23T00:51:28;14.87;;;10.53;;
20731;SDS011;10527;52.124;5.196;2022-11-23T00:54:01;15.23;;;9.80;;
20731;SDS011;10527;52.124;5.196;2022-11-23T00:56:31;14.63;;;10.50;;
20731;SDS011;10527;52.124;5.196;2022-11-23T00:59:01;15.87;;;10.07;;
20731;SDS011;10527;52.124;5.196;2022-11-23T01:01:32;15.80;;;10.30;;
20731;SDS011;10527;52.124;5.196;2022-11-23T01:04:04;13.20;;;10.40;;
20731;SDS011;10527;52.124;5.196;2022-11-23T01:06:37;13.33;;;9.73;;
20731;SDS011;10527;52.124;5.196;2022-11-23T01:09:07;17.10;;;12.30;;
20731;SDS011;10527;52.124;5.196;2022-11-23T01:11:45;16.97;;;11.30;;
20731;SDS011;10527;52.124;5.196;2022-11-23T01:14:12;16.37;;;10.20;;
20731;SDS011;10527;52.124;5.196;2022-11-23T01:16:39;17.63;;;10.60;;
20731;SDS011;10527;52.124;5.196;2022-11-23T01:19:07;17.90;;;11.37;;
20731;SDS011;10527;52.124;5.196;2022-11-23T01:21:45;15.43;;;10.03;;
20731;SDS011;10527;52.124;5.196;2022-11-23T01:24:14;15.83;;;10.43;;
20731;SDS011;10527;52.124;5.196;2022-11-23T01:27:00;13.90;;;9.43;;
20731;SDS011;10527;52.124;5.196;2022-11-23T01:29:27;13.33;;;9.53;;
20731;SDS011;10527;52.124;5.196;2022-11-23T01:31:55;13.30;;;9.30;;
20731;SDS011;10527;52.124;5.196;2022-11-23T01:34:21;14.97;;;9.43;;
20731;SDS011;10527;52.124;5.196;2022-11-23T01:36:48;16.17;;;9.00;;
20731;SDS011;10527;52.124;5.196;2022-11-23T01:39:18;16.40;;;9.00;;
20731;SDS011;10527;52.124;5.196;2022-11-23T01:41:45;14.73;;;9.00;;
20731;SDS011;10527;52.124;5.196;2022-11-23T01:44:22;14.23;;;8.53;;
20731;SDS011;10527;52.124;5.196;2022-11-23T01:46:59;11.73;;;8.50;;
20731;SDS011;10527;52.124;5.196;2022-11-23T01:49:44;13.33;;;8.23;;
20731;SDS011;10527;52.124;5.196;2022-11-23T01:52:17;15.30;;;8.37;;
20731;SDS011;10527;52.124;5.196;2022-11-23T01:54:53;14.47;;;8.70;;
20731;SDS011;10527;52.124;5.196;2022-11-23T01:57:30;11.93;;;8.37;;
20731;SDS011;10527;52.124;5.196;2022-11-23T02:00:05;12.17;;;7.87;;
20731;SDS011;10527;52.124;5.196;2022-11-23T02:02:33;12.50;;;7.87;;
20731;SDS011;10527;52.124;5.196;2022-11-23T02:05:06;13.27;;;8.10;;
20731;SDS011;10527;52.124;5.196;2022-11-23T02:07:33;10.63;;;7.60;;
20731;SDS011;10527;52.124;5.196;2022-11-23T02:10:01;10.50;;;7.00;;
20731;SDS011;10527;52.124;5.196;2022-11-23T02:12:28;10.30;;;7.43;;
20731;SDS011;10527;52.124;5.196;2022-11-23T02:14:59;12.07;;;6.97;;
20731;SDS011;10527;52.124;5.196;2022-11-23T02:17:26;9.33;;;6.10;;
20731;SDS011;10527;52.124;5.196;2022-11-23T02:20:02;12.47;;;6.30;;
20731;SDS011;10527;52.124;5.196;2022-11-23T02:28:18;11.73;;;6.17;;
20731;SDS011;10527;52.124;5.196;2022-11-23T02:30:52;11.30;;;5.60;;
20731;SDS011;10527;52.124;5.196;2022-11-23T02:33:20;18.10;;;7.60;;
20731;SDS011;10527;52.124;5.196;2022-11-23T02:35:49;13.50;;;5.73;;
20731;SDS011;10527;52.124;5.196;2022-11-23T02:38:23;10.77;;;5.90;;
20731;SDS011;10527;52.124;5.196;2022-11-23T02:40:55;11.57;;;6.47;;
20731;SDS011;10527;52.124;5.196;2022-11-23T02:43:23;12.30;;;6.27;;
20731;SDS011;10527;52.124;5.196;2022-11-23T02:45:54;11.47;;;6.10;;
20731;SDS011;10527;52.124;5.196;2022-11-23T02:48:27;10.70;;;7.53;;
20731;SDS011;10527;52.124;5.196;2022-11-23T02:50:53;12.83;;;7.13;;
20731;SDS011;10527;52.124;5.196;2022-11-23T02:53:20;15.17;;;7.43;;
20731;SDS011;10527;52.124;5.196;2022-11-23T02:55:49;12.43;;;7.80;;
20731;SDS011;10527;52.124;5.196;2022-11-23T02:58:15;12.47;;;7.13;;
20731;SDS011;10527;52.124;5.196;2022-11-23T03:00:42;12.43;;;7.20;;
20731;SDS011;10527;52.124;5.196;2022-11-23T03:03:09;14.23;;;8.17;;
20731;SDS011;10527;52.124;5.196;2022-11-23T03:05:36;12.13;;;6.10;;
20731;SDS011;10527;52.124;5.196;2022-11-23T03:08:03;10.33;;;6.57;;
20731;SDS011;10527;52.124;5.196;2022-11-23T03:10:30;8.47;;;5.77;;
20731;SDS011;10527;52.124;5.196;2022-11-23T03:12:59;12.73;;;6.47;;
20731;SDS011;10527;52.124;5.196;2022-11-23T03:15:26;8.20;;;6.20;;
20731;SDS011;10527;52.124;5.196;2022-11-23T03:17:53;11.90;;;6.10;;
20731;SDS011;10527;52.124;5.196;2022-11-23T03:20:25;14.40;;;6.87;;
20731;SDS011;10527;52.124;5.196;2022-11-23T03:22:52;10.73;;;6.60;;
20731;SDS011;10527;52.124;5.196;2022-11-23T03:25:18;11.30;;;7.80;;
20731;SDS011;10527;52.124;5.196;2022-11-23T03:27:45;11.23;;;6.83;;
20731;SDS011;10527;52.124;5.196;2022-11-23T03:30:12;10.40;;;7.20;;
20731;SDS011;10527;52.124;5.196;2022-11-23T03:32:40;10.63;;;6.53;;
20731;SDS011;10527;52.124;5.196;2022-11-23T03:35:06;8.00;;;6.10;;
20731;SDS011;10527;52.124;5.196;2022-11-23T03:37:34;13.33;;;7.13;;
20731;SDS011;10527;52.124;5.196;2022-11-23T03:40:01;8.00;;;5.73;;
20731;SDS011;10527;52.124;5.196;2022-11-23T03:42:28;8.67;;;5.97;;
20731;SDS011;10527;52.124;5.196;2022-11-23T03:44:54;7.27;;;5.20;;
20731;SDS011;10527;52.124;5.196;2022-11-23T03:47:21;7.83;;;6.03;;
20731;SDS011;10527;52.124;5.196;2022-11-23T03:49:48;8.50;;;6.20;;
20731;SDS011;10527;52.124;5.196;2022-11-23T03:52:15;11.23;;;6.17;;
20731;SDS011;10527;52.124;5.196;2022-11-23T03:54:41;10.30;;;6.37;;
20731;SDS011;10527;52.124;5.196;2022-11-23T03:57:08;9.77;;;6.30;;
20731;SDS011;10527;52.124;5.196;2022-11-23T03:59:35;9.87;;;6.10;;
20731;SDS011;10527;52.124;5.196;2022-11-23T04:02:01;8.50;;;6.57;;
20731;SDS011;10527;52.124;5.196;2022-11-23T04:04:28;10.03;;;7.03;;
20731;SDS011;10527;52.124;5.196;2022-11-23T04:06:55;10.87;;;6.53;;
20731;SDS011;10527;52.124;5.196;2022-11-23T04:09:22;10.23;;;5.87;;
20731;SDS011;10527;52.124;5.196;2022-11-23T04:11:49;7.13;;;5.90;;
20731;SDS011;10527;52.124;5.196;2022-11-23T04:14:15;8.73;;;5.80;;
20731;SDS011;10527;52.124;5.196;2022-11-23T04:16:42;9.20;;;5.97;;
20731;SDS011;10527;52.124;5.196;2022-11-23T04:19:09;11.00;;;6.40;;
20731;SDS011;10527;52.124;5.196;2022-11-23T04:21:36;7.73;;;6.10;;
20731;SDS011;10527;52.124;5.196;2022-11-23T04:24:06;9.13;;;5.43;;
20731;SDS011;10527;52.124;5.196;2022-11-23T04:26:33;11.83;;;5.27;;
20731;SDS011;10527;52.124;5.196;2022-11-23T04:28:59;7.80;;;4.90;;
20731;SDS011;10527;52.124;5.196;2022-11-23T04:31:26;6.77;;;4.50;;
20731;SDS011;10527;52.124;5.196;2022-11-23T04:33:54;5.97;;;4.67;;
20731;SDS011;10527;52.124;5.196;2022-11-23T04:36:22;7.30;;;4.73;;
20731;SDS011;10527;52.124;5.196;2022-11-23T04:38:49;9.77;;;4.57;;
20731;SDS011;10527;52.124;5.196;2022-11-23T04:41:16;6.23;;;4.17;;
20731;SDS011;10527;52.124;5.196;2022-11-23T04:43:43;9.17;;;4.67;;
20731;SDS011;10527;52.124;5.196;2022-11-23T04:46:12;6.20;;;4.13;;
20731;SDS011;10527;52.124;5.196;2022-11-23T04:48:39;11.43;;;4.23;;
20731;SDS011;10527;52.124;5.196;2022-11-23T04:51:06;7.40;;;3.77;;
20731;SDS011;10527;52.124;5.196;2022-11-23T04:53:33;7.10;;;3.80;;
20731;SDS011;10527;52.124;5.196;2022-11-23T04:56:00;6.97;;;4.03;;
20731;SDS011;10527;52.124;5.196;2022-11-23T04:58:28;8.47;;;4.37;;
20731;SDS011;10527;52.124;5.196;2022-11-23T05:00:59;6.40;;;4.40;;
20731;SDS011;10527;52.124;5.196;2022-11-23T05:03:30;5.97;;;3.77;;
20731;SDS011;10527;52.124;5.196;2022-11-23T05:06:03;7.93;;;3.67;;
20731;SDS011;10527;52.124;5.196;2022-11-23T05:08:32;8.23;;;4.17;;
20731;SDS011;10527;52.124;5.196;2022-11-23T05:11:02;6.43;;;4.03;;
20731;SDS011;10527;52.124;5.196;2022-11-23T05:13:29;8.33;;;4.30;;
20731;SDS011;10527;52.124;5.196;2022-11-23T05:15:56;7.87;;;4.00;;
20731;SDS011;10527;52.124;5.196;2022-11-23T05:18:28;7.33;;;4.03;;
20731;SDS011;10527;52.124;5.196;2022-11-23T05:20:54;8.63;;;4.97;;
20731;SDS011;10527;52.124;5.196;2022-11-23T05:23:21;7.70;;;4.33;;
20731;SDS011;10527;52.124;5.196;2022-11-23T05:25:48;11.57;;;4.40;;
20731;SDS011;10527;52.124;5.196;2022-11-23T05:28:16;8.63;;;4.30;;
20731;SDS011;10527;52.124;5.196;2022-11-23T05:31:05;9.10;;;4.23;;
20731;SDS011;10527;52.124;5.196;2022-11-23T05:33:32;9.57;;;4.37;;
20731;SDS011;10527;52.124;5.196;2022-11-23T05:35:59;7.53;;;5.10;;
20731;SDS011;10527;52.124;5.196;2022-11-23T05:38:26;7.13;;;4.03;;
20731;SDS011;10527;52.124;5.196;2022-11-23T05:40:57;5.13;;;4.13;;
20731;SDS011;10527;52.124;5.196;2022-11-23T05:43:23;10.43;;;3.87;;
20731;SDS011;10527;52.124;5.196;2022-11-23T05:45:50;9.03;;;4.33;;
20731;SDS011;10527;52.124;5.196;2022-11-23T05:48:17;11.67;;;5.03;;
20731;SDS011;10527;52.124;5.196;2022-11-23T05:50:44;8.50;;;4.30;;
20731;SDS011;10527;52.124;5.196;2022-11-23T05:53:11;8.13;;;3.67;;
20731;SDS011;10527;52.124;5.196;2022-11-23T05:55:37;8.80;;;4.33;;
20731;SDS011;10527;52.124;5.196;2022-11-23T05:58:04;6.20;;;3.80;;
20731;SDS011;10527;52.124;5.196;2022-11-23T06:00:33;8.17;;;4.83;;
20731;SDS011;10527;52.124;5.196;2022-11-23T06:03:00;9.37;;;4.13;;
20731;SDS011;10527;52.124;5.196;2022-11-23T06:05:27;9.20;;;4.67;;
20731;SDS011;10527;52.124;5.196;2022-11-23T06:07:55;10.37;;;4.37;;
20731;SDS011;10527;52.124;5.196;2022-11-23T06:10:22;9.30;;;6.00;;
20731;SDS011;10527;52.124;5.196;2022-11-23T06:12:50;8.30;;;4.30;;
20731;SDS011;10527;52.124;5.196;2022-11-23T06:15:17;10.07;;;4.47;;
20731;SDS011;10527;52.124;5.196;2022-11-23T06:17:44;7.73;;;4.33;;
20731;SDS011;10527;52.124;5.196;2022-11-23T06:20:11;7.63;;;4.23;;
20731;SDS011;10527;52.124;5.196;2022-11-23T06:22:38;8.10;;;4.40;;
20731;SDS011;10527;52.124;5.196;2022-11-23T06:25:05;10.53;;;4.30;;
20731;SDS011;10527;52.124;5.196;2022-11-23T06:27:32;7.97;;;4.30;;
20731;SDS011;10527;52.124;5.196;2022-11-23T06:29:59;12.43;;;4.50;;
20731;SDS011;10527;52.124;5.196;2022-11-23T06:32:26;7.20;;;4.93;;
20731;SDS011;10527;52.124;5.196;2022-11-23T06:34:52;15.07;;;3.77;;
20731;SDS011;10527;52.124;5.196;2022-11-23T06:37:26;5.67;;;3.70;;
20731;SDS011;10527;52.124;5.196;2022-11-23T06:39:54;7.53;;;3.73;;
20731;SDS011;10527;52.124;5.196;2022-11-23T06:42:20;6.57;;;4.07;;
20731;SDS011;10527;52.124;5.196;2022-11-23T06:45:06;10.40;;;3.67;;
20731;SDS011;10527;52.124;5.196;2022-11-23T06:47:35;7.73;;;3.50;;
20731;SDS011;10527;52.124;5.196;2022-11-23T06:50:02;7.50;;;3.13;;
20731;SDS011;10527;52.124;5.196;2022-11-23T06:52:29;8.80;;;3.40;;
20731;SDS011;10527;52.124;5.196;2022-11-23T06:54:56;5.90;;;2.27;;
20731;SDS011;10527;52.124;5.196;2022-11-23T06:57:23;9.43;;;3.30;;
20731;SDS011;10527;52.124;5.196;2022-11-23T06:59:49;9.33;;;2.27;;
20731;SDS011;10527;52.124;5.196;2022-11-23T07:02:16;9.17;;;2.60;;
20731;SDS011;10527;52.124;5.196;2022-11-23T07:04:43;4.97;;;2.20;;
20731;SDS011;10527;52.124;5.196;2022-11-23T07:07:12;6.63;;;2.20;;
20731;SDS011;10527;52.124;5.196;2022-11-23T07:09:39;7.00;;;2.13;;
20731;SDS011;10527;52.124;5.196;2022-11-23T07:12:05;8.10;;;2.10;;
20731;SDS011;10527;52.124;5.196;2022-11-23T07:14:33;5.80;;;1.90;;
20731;SDS011;10527;52.124;5.196;2022-11-23T07:16:59;4.00;;;1.57;;
20731;SDS011;10527;52.124;5.196;2022-11-23T07:19:26;7.73;;;1.67;;
20731;SDS011;10527;52.124;5.196;2022-11-23T07:21:53;7.03;;;1.60;;
20731;SDS011;10527;52.124;5.196;2022-11-23T07:24:19;10.50;;;2.53;;
20731;SDS011;10527;52.124;5.196;2022-11-23T07:26:49;10.23;;;1.63;;
20731;SDS011;10527;52.124;5.196;2022-11-23T07:29:16;7.10;;;1.60;;
20731;SDS011;10527;52.124;5.196;2022-11-23T07:31:43;11.10;;;2.43;;
20731;SDS011;10527;52.124;5.196;2022-11-23T07:34:09;5.77;;;1.60;;
20731;SDS011;10527;52.124;5.196;2022-11-23T07:36:36;7.53;;;1.87;;
20731;SDS011;10527;52.124;5.196;2022-11-23T07:39:03;6.50;;;1.93;;
20731;SDS011;10527;52.124;5.196;2022-11-23T07:41:30;6.07;;;1.67;;
20731;SDS011;10527;52.124;5.196;2022-11-23T07:43:57;9.20;;;1.90;;
20731;SDS011;10527;52.124;5.196;2022-11-23T07:46:24;7.40;;;1.70;;
20731;SDS011;10527;52.124;5.196;2022-11-23T07:48:51;7.37;;;1.67;;
20731;SDS011;10527;52.124;5.196;2022-11-23T07:51:19;6.60;;;1.47;;
20731;SDS011;10527;52.124;5.196;2022-11-23T07:53:46;10.97;;;2.27;;
20731;SDS011;10527;52.124;5.196;2022-11-23T07:56:13;7.50;;;1.80;;
20731;SDS011;10527;52.124;5.196;2022-11-23T07:58:39;7.23;;;2.10;;
20731;SDS011;10527;52.124;5.196;2022-11-23T08:01:06;8.03;;;2.10;;
20731;SDS011;10527;52.124;5.196;2022-11-23T08:03:33;5.47;;;1.53;;
20731;SDS011;10527;52.124;5.196;2022-11-23T08:06:00;6.93;;;1.93;;
20731;SDS011;10527;52.124;5.196;2022-11-23T08:08:27;7.17;;;1.93;;
20731;SDS011;10527;52.124;5.196;2022-11-23T08:10:54;7.00;;;1.53;;
20731;SDS011;10527;52.124;5.196;2022-11-23T08:13:21;8.80;;;1.77;;
20731;SDS011;10527;52.124;5.196;2022-11-23T08:15:48;6.30;;;1.43;;
20731;SDS011;10527;52.124;5.196;2022-11-23T08:18:20;8.27;;;1.83;;
20731;SDS011;10527;52.124;5.196;2022-11-23T08:20:49;9.50;;;1.70;;
20731;SDS011;10527;52.124;5.196;2022-11-23T08:23:15;7.13;;;1.97;;
20731;SDS011;10527;52.124;5.196;2022-11-23T08:25:42;9.53;;;2.00;;
20731;SDS011;10527;52.124;5.196;2022-11-23T08:28:10;10.77;;;2.23;;
20731;SDS011;10527;52.124;5.196;2022-11-23T08:30:37;5.80;;;1.93;;
20731;SDS011;10527;52.124;5.196;2022-11-23T08:33:05;9.57;;;2.07;;
20731;SDS011;10527;52.124;5.196;2022-11-23T08:35:36;8.73;;;1.93;;
20731;SDS011;10527;52.124;5.196;2022-11-23T08:38:07;6.80;;;1.83;;
20731;SDS011;10527;52.124;5.196;2022-11-23T08:40:36;8.27;;;1.97;;
20731;SDS011;10527;52.124;5.196;2022-11-23T08:43:04;8.90;;;1.83;;
20731;SDS011;10527;52.124;5.196;2022-11-23T08:45:34;7.50;;;2.63;;
20731;SDS011;10527;52.124;5.196;2022-11-23T08:48:01;17.67;;;2.70;;
20731;SDS011;10527;52.124;5.196;2022-11-23T08:50:29;10.90;;;2.40;;
20731;SDS011;10527;52.124;5.196;2022-11-23T08:52:59;11.07;;;2.63;;
20731;SDS011;10527;52.124;5.196;2022-11-23T08:55:27;10.70;;;2.67;;
20731;SDS011;10527;52.124;5.196;2022-11-23T08:57:55;8.87;;;2.40;;
20731;SDS011;10527;52.124;5.196;2022-11-23T09:00:25;8.87;;;2.30;;
20731;SDS011;10527;52.124;5.196;2022-11-23T09:02:55;7.40;;;1.80;;
20731;SDS011;10527;52.124;5.196;2022-11-23T09:05:24;6.87;;;1.30;;
20731;SDS011;10527;52.124;5.196;2022-11-23T09:07:52;9.40;;;1.67;;
20731;SDS011;10527;52.124;5.196;2022-11-23T09:10:20;7.93;;;1.60;;
20731;SDS011;10527;52.124;5.196;2022-11-23T09:12:48;10.27;;;1.80;;
20731;SDS011;10527;52.124;5.196;2022-11-23T09:15:15;7.97;;;1.60;;
20731;SDS011;10527;52.124;5.196;2022-11-23T09:17:42;10.33;;;1.63;;
20731;SDS011;10527;52.124;5.196;2022-11-23T09:20:09;7.90;;;1.87;;
20731;SDS011;10527;52.124;5.196;2022-11-23T09:22:37;7.33;;;1.70;;
20731;SDS011;10527;52.124;5.196;2022-11-23T09:25:05;6.13;;;1.73;;
20731;SDS011;10527;52.124;5.196;2022-11-23T09:27:33;7.47;;;2.50;;
20731;SDS011;10527;52.124;5.196;2022-11-23T09:30:00;6.10;;;2.43;;
20731;SDS011;10527;52.124;5.196;2022-11-23T09:32:27;12.43;;;2.03;;
20731;SDS011;10527;52.124;5.196;2022-11-23T09:34:54;13.30;;;1.83;;
20731;SDS011;10527;52.124;5.196;2022-11-23T09:37:21;10.07;;;2.20;;
20731;SDS011;10527;52.124;5.196;2022-11-23T09:39:48;6.00;;;1.40;;
20731;SDS011;10527;52.124;5.196;2022-11-23T09:48:14;8.63;;;2.10;;
20731;SDS011;10527;52.124;5.196;2022-11-23T09:50:58;7.93;;;1.57;;
20731;SDS011;10527;52.124;5.196;2022-11-23T09:56:26;11.10;;;1.87;;
20731;SDS011;10527;52.124;5.196;2022-11-23T09:59:00;8.43;;;1.63;;
20731;SDS011;10527;52.124;5.196;2022-11-23T10:01:36;12.23;;;2.33;;
20731;SDS011;10527;52.124;5.196;2022-11-23T10:04:04;5.20;;;1.67;;
20731;SDS011;10527;52.124;5.196;2022-11-23T10:06:39;3.80;;;1.17;;
20731;SDS011;10527;52.124;5.196;2022-11-23T10:21:27;5.87;;;1.70;;
20731;SDS011;10527;52.124;5.196;2022-11-23T10:24:27;6.93;;;1.77;;
20731;SDS011;10527;52.124;5.196;2022-11-23T10:27:10;11.93;;;2.17;;
20731;SDS011;10527;52.124;5.196;2022-11-23T10:29:52;12.10;;;2.73;;
20731;SDS011;10527;52.124;5.196;2022-11-23T10:32:25;14.13;;;3.23;;
20731;SDS011;10527;52.124;5.196;2022-11-23T10:35:15;6.10;;;1.43;;
20731;SDS011;10527;52.124;5.196;2022-11-23T10:38:16;7.90;;;1.67;;
20731;SDS011;10527;52.124;5.196;2022-11-23T10:43:51;12.57;;;2.60;;
20731;SDS011;10527;52.124;5.196;2022-11-23T10:52:03;9.60;;;1.50;;
20731;SDS011;10527;52.124;5.196;2022-11-23T10:54:54;7.43;;;1.63;;
20731;SDS011;10527;52.124;5.196;2022-11-23T10:57:41;5.63;;;1.53;;
20731;SDS011;10527;52.124;5.196;2022-11-23T11:00:29;9.23;;;1.77;;
20731;SDS011;10527;52.124;5.196;2022-11-23T11:02:57;8.13;;;1.70;;
20731;SDS011;10527;52.124;5.196;2022-11-23T11:05:29;6.00;;;1.43;;
20731;SDS011;10527;52.124;5.196;2022-11-23T11:08:56;6.57;;;1.50;;
20731;SDS011;10527;52.124;5.196;2022-11-23T11:11:33;8.57;;;1.50;;
20731;SDS011;10527;52.124;5.196;2022-11-23T11:14:18;5.33;;;1.67;;
20731;SDS011;10527;52.124;5.196;2022-11-23T11:16:49;8.17;;;1.47;;
20731;SDS011;10527;52.124;5.196;2022-11-23T11:19:20;8.07;;;1.83;;
20731;SDS011;10527;52.124;5.196;2022-11-23T11:22:02;7.60;;;1.77;;
20731;SDS011;10527;52.124;5.196;2022-11-23T11:24:57;6.47;;;1.10;;
20731;SDS011;10527;52.124;5.196;2022-11-23T11:27:24;3.80;;;1.47;;
20731;SDS011;10527;52.124;5.196;2022-11-23T11:29:56;7.13;;;1.63;;
20731;SDS011;10527;52.124;5.196;2022-11-23T11:35:26;7.50;;;1.53;;
20731;SDS011;10527;52.124;5.196;2022-11-23T11:38:10;6.70;;;1.80;;
20731;SDS011;10527;52.124;5.196;2022-11-23T11:49:13;5.70;;;1.37;;
20731;SDS011;10527;52.124;5.196;2022-11-23T11:51:57;8.27;;;1.83;;
20731;SDS011;10527;52.124;5.196;2022-11-23T11:57:27;7.17;;;2.43;;
20731;SDS011;10527;52.124;5.196;2022-11-23T12:00:06;7.80;;;2.03;;
20731;SDS011;10527;52.124;5.196;2022-11-23T12:05:43;4.70;;;1.30;;
20731;SDS011;10527;52.124;5.196;2022-11-23T12:08:28;8.70;;;1.20;;
20731;SDS011;10527;52.124;5.196;2022-11-23T12:11:07;4.53;;;1.30;;
20731;SDS011;10527;52.124;5.196;2022-11-23T12:13:39;8.07;;;1.50;;
20731;SDS011;10527;52.124;5.196;2022-11-23T12:16:33;6.57;;;1.70;;
20731;SDS011;10527;52.124;5.196;2022-11-23T12:19:48;6.47;;;1.53;;
20731;SDS011;10527;52.124;5.196;2022-11-23T12:22:41;9.10;;;1.40;;
20731;SDS011;10527;52.124;5.196;2022-11-23T12:28:53;5.20;;;1.17;;
20731;SDS011;10527;52.124;5.196;2022-11-23T12:31:43;4.53;;;1.60;;
20731;SDS011;10527;52.124;5.196;2022-11-23T12:34:36;5.70;;;1.13;;
20731;SDS011;10527;52.124;5.196;2022-11-23T12:43:28;6.07;;;1.47;;
20731;SDS011;10527;52.124;5.196;2022-11-23T12:46:31;2.83;;;1.10;;
20731;SDS011;10527;52.124;5.196;2022-11-23T12:49:13;5.27;;;1.10;;
20731;SDS011;10527;52.124;5.196;2022-11-23T12:58:29;4.47;;;0.87;;
20731;SDS011;10527;52.124;5.196;2022-11-23T13:00:56;3.73;;;1.90;;
20731;SDS011;10527;52.124;5.196;2022-11-23T13:04:30;3.00;;;1.33;;
20731;SDS011;10527;52.124;5.196;2022-11-23T13:07:16;7.00;;;1.03;;
20731;SDS011;10527;52.124;5.196;2022-11-23T13:10:29;3.67;;;0.90;;
20731;SDS011;10527;52.124;5.196;2022-11-23T13:13:28;5.70;;;1.00;;
20731;SDS011;10527;52.124;5.196;2022-11-23T13:21:38;4.87;;;1.10;;
20731;SDS011;10527;52.124;5.196;2022-11-23T13:24:31;4.27;;;0.80;;
20731;SDS011;10527;52.124;5.196;2022-11-23T13:38:36;3.27;;;1.23;;
20731;SDS011;10527;52.124;5.196;2022-11-23T13:40:46;3.90;;;1.00;;
20731;SDS011;10527;52.124;5.196;2022-11-23T13:48:57;7.77;;;1.00;;
20731;SDS011;10527;52.124;5.196;2022-11-23T13:51:26;4.37;;;1.33;;
20731;SDS011;10527;52.124;5.196;2022-11-23T13:53:59;3.60;;;1.03;;
20731;SDS011;10527;52.124;5.196;2022-11-23T13:56:44;3.97;;;1.10;;
20731;SDS011;10527;52.124;5.196;2022-11-23T14:04:36;4.87;;;0.90;;
20731;SDS011;10527;52.124;5.196;2022-11-23T14:07:25;5.03;;;0.90;;
20731;SDS011;10527;52.124;5.196;2022-11-23T14:10:20;5.80;;;1.03;;
20731;SDS011;10527;52.124;5.196;2022-11-23T14:15:32;2.37;;;0.87;;
20731;SDS011;10527;52.124;5.196;2022-11-23T14:21:41;2.53;;;0.80;;
20731;SDS011;10527;52.124;5.196;2022-11-23T14:24:33;3.23;;;1.00;;
20731;SDS011;10527;52.124;5.196;2022-11-23T14:42:56;3.80;;;1.10;;
20731;SDS011;10527;52.124;5.196;2022-11-23T14:45:26;4.20;;;0.70;;
20731;SDS011;10527;52.124;5.196;2022-11-23T14:48:18;3.40;;;1.17;;
20731;SDS011;10527;52.124;5.196;2022-11-23T14:50:54;2.50;;;1.07;;
20731;SDS011;10527;52.124;5.196;2022-11-23T14:53:34;2.17;;;0.90;;
20731;SDS011;10527;52.124;5.196;2022-11-23T14:56:20;3.67;;;1.00;;
20731;SDS011;10527;52.124;5.196;2022-11-23T15:01:55;4.00;;;1.73;;
20731;SDS011;10527;52.124;5.196;2022-11-23T15:04:31;3.47;;;0.90;;
20731;SDS011;10527;52.124;5.196;2022-11-23T15:09:53;5.87;;;2.37;;
20731;SDS011;10527;52.124;5.196;2022-11-23T15:12:43;2.97;;;1.30;;
20731;SDS011;10527;52.124;5.196;2022-11-23T15:15:15;4.03;;;1.80;;
20731;SDS011;10527;52.124;5.196;2022-11-23T15:17:59;4.83;;;1.30;;
20731;SDS011;10527;52.124;5.196;2022-11-23T15:20:29;4.00;;;1.37;;
20731;SDS011;10527;52.124;5.196;2022-11-23T15:23:14;3.47;;;0.90;;
20731;SDS011;10527;52.124;5.196;2022-11-23T15:25:53;3.67;;;0.80;;
20731;SDS011;10527;52.124;5.196;2022-11-23T15:28:25;1.80;;;1.00;;
20731;SDS011;10527;52.124;5.196;2022-11-23T15:30:57;1.47;;;0.80;;
20731;SDS011;10527;52.124;5.196;2022-11-23T15:33:24;3.57;;;1.20;;
20731;SDS011;10527;52.124;5.196;2022-11-23T15:35:51;5.90;;;1.50;;
20731;SDS011;10527;52.124;5.196;2022-11-23T15:38:20;4.00;;;1.20;;
20731;SDS011;10527;52.124;5.196;2022-11-23T15:40:49;3.23;;;0.97;;
20731;SDS011;10527;52.124;5.196;2022-11-23T15:43:17;4.23;;;0.90;;
20731;SDS011;10527;52.124;5.196;2022-11-23T15:48:13;4.47;;;0.97;;
20731;SDS011;10527;52.124;5.196;2022-11-23T15:53:24;1.57;;;0.73;;
20731;SDS011;10527;52.124;5.196;2022-11-23T15:56:10;4.73;;;0.90;;
20731;SDS011;10527;52.124;5.196;2022-11-23T16:02:12;3.67;;;1.00;;
20731;SDS011;10527;52.124;5.196;2022-11-23T16:04:49;3.47;;;1.20;;
20731;SDS011;10527;52.124;5.196;2022-11-23T16:07:29;2.07;;;0.90;;
20731;SDS011;10527;52.124;5.196;2022-11-23T16:12:32;2.03;;;0.90;;
20731;SDS011;10527;52.124;5.196;2022-11-23T16:17:52;2.97;;;0.93;;
20731;SDS011;10527;52.124;5.196;2022-11-23T16:20:20;7.57;;;1.10;;
20731;SDS011;10527;52.124;5.196;2022-11-23T16:22:50;4.97;;;0.93;;
20731;SDS011;10527;52.124;5.196;2022-11-23T16:28:05;3.40;;;1.40;;
20731;SDS011;10527;52.124;5.196;2022-11-23T16:30:52;4.23;;;1.80;;
20731;SDS011;10527;52.124;5.196;2022-11-23T16:33:20;3.60;;;1.20;;
20731;SDS011;10527;52.124;5.196;2022-11-23T16:35:47;2.63;;;1.20;;
20731;SDS011;10527;52.124;5.196;2022-11-23T16:38:15;2.47;;;0.90;;
20731;SDS011;10527;52.124;5.196;2022-11-23T16:40:44;2.00;;;1.00;;
20731;SDS011;10527;52.124;5.196;2022-11-23T16:43:13;4.70;;;1.43;;
20731;SDS011;10527;52.124;5.196;2022-11-23T16:45:43;5.10;;;1.40;;
20731;SDS011;10527;52.124;5.196;2022-11-23T16:50:52;3.00;;;1.23;;
20731;SDS011;10527;52.124;5.196;2022-11-23T16:53:20;5.77;;;2.20;;
20731;SDS011;10527;52.124;5.196;2022-11-23T16:55:51;2.47;;;1.50;;
20731;SDS011;10527;52.124;5.196;2022-11-23T16:58:20;4.63;;;1.70;;
20731;SDS011;10527;52.124;5.196;2022-11-23T17:00:48;3.03;;;1.90;;
20731;SDS011;10527;52.124;5.196;2022-11-23T17:03:16;3.70;;;2.00;;
20731;SDS011;10527;52.124;5.196;2022-11-23T17:05:45;4.40;;;2.20;;
20731;SDS011;10527;52.124;5.196;2022-11-23T17:08:13;3.33;;;1.80;;
20731;SDS011;10527;52.124;5.196;2022-11-23T17:10:46;3.30;;;2.13;;
20731;SDS011;10527;52.124;5.196;2022-11-23T17:13:22;5.17;;;2.20;;
20731;SDS011;10527;52.124;5.196;2022-11-23T17:15:57;4.13;;;2.20;;
20731;SDS011;10527;52.124;5.196;2022-11-23T17:18:24;3.37;;;1.93;;
20731;SDS011;10527;52.124;5.196;2022-11-23T17:20:53;4.17;;;2.40;;
20731;SDS011;10527;52.124;5.196;2022-11-23T17:23:21;5.77;;;2.47;;
20731;SDS011;10527;52.124;5.196;2022-11-23T17:25:47;6.47;;;2.63;;
20731;SDS011;10527;52.124;5.196;2022-11-23T17:28:15;3.43;;;2.23;;
20731;SDS011;10527;52.124;5.196;2022-11-23T17:30:47;4.17;;;2.60;;
20731;SDS011;10527;52.124;5.196;2022-11-23T17:33:15;4.17;;;2.30;;
20731;SDS011;10527;52.124;5.196;2022-11-23T17:35:43;3.13;;;2.37;;